createdAt,value
2017-12-26T00:00:18.933Z,2.6
2017-12-26T00:02:18.695Z,2.9
2017-12-26T00:04:19.406Z,3
2017-12-26T00:06:19.561Z,3.2
2017-12-26T00:08:19.300Z,3
2017-12-26T00:10:19.491Z,2.8
2017-12-26T00:12:19.271Z,2.9
2017-12-26T00:14:19.056Z,2.7
2017-12-26T00:16:19.302Z,2.9
2017-12-26T00:18:19.111Z,3.3
2017-12-26T00:20:18.859Z,4.4
2017-12-26T00:22:19.567Z,4.4
2017-12-26T00:24:19.295Z,3.7
2017-12-26T00:26:18.851Z,2.8
2017-12-26T00:28:19.627Z,4.3
2017-12-26T00:30:19.396Z,4.2
2017-12-26T00:32:19.011Z,5
2017-12-26T00:34:18.728Z,6.5
2017-12-26T00:36:19.227Z,4.5
2017-12-26T00:38:18.946Z,3.5
2017-12-26T00:40:19.153Z,3.7
2017-12-26T00:42:18.913Z,4.4
2017-12-26T00:44:19.679Z,3.1
2017-12-26T00:46:19.263Z,3.8
2017-12-26T00:48:19.021Z,6
2017-12-26T00:50:18.738Z,4
2017-12-26T00:52:19.442Z,4.1
2017-12-26T00:54:19.195Z,3.1
2017-12-26T00:56:19.406Z,3.6
2017-12-26T00:58:19.146Z,6.1
2017-12-26T01:00:18.940Z,3.9
2017-12-26T01:02:18.665Z,5
2017-12-26T01:04:19.406Z,4.3
2017-12-26T01:06:18.818Z,6.9
2017-12-26T01:08:19.536Z,3.9
2017-12-26T01:10:18.757Z,3.9
2017-12-26T01:12:19.504Z,2.9
2017-12-26T01:14:19.247Z,4.9
2017-12-26T01:16:18.960Z,6.5
2017-12-26T01:18:18.780Z,5.3
2017-12-26T01:20:19.629Z,5.7
2017-12-26T01:22:19.367Z,6.3
2017-12-26T01:24:19.175Z,4.9
2017-12-26T01:26:18.729Z,9.7
2017-12-26T01:28:19.473Z,5.8
2017-12-26T01:30:19.236Z,7.1
2017-12-26T01:32:18.991Z,6.9
2017-12-26T01:34:18.708Z,6.1
2017-12-26T01:36:19.563Z,4.6
2017-12-26T01:38:19.268Z,6.7
2017-12-26T01:40:19.454Z,3.4
2017-12-26T01:42:19.202Z,8.8
2017-12-26T01:44:18.912Z,6.2
2017-12-26T01:46:19.549Z,6.3
2017-12-26T01:48:19.308Z,9.3
2017-12-26T01:50:19.118Z,5
2017-12-26T01:52:18.888Z,6.2
2017-12-26T01:54:19.612Z,10.4
2017-12-26T01:56:19.135Z,8.2
2017-12-26T01:58:18.862Z,6
2017-12-26T02:00:19.586Z,4.6
2017-12-26T02:02:18.692Z,6.2
2017-12-26T02:04:19.436Z,5.3
2017-12-26T02:06:18.960Z,5.9
2017-12-26T02:08:18.704Z,5
2017-12-26T02:10:18.887Z,6.3
2017-12-26T02:12:19.626Z,6.1
2017-12-26T02:14:19.350Z,6.7
2017-12-26T02:16:19.407Z,5.4
2017-12-26T02:18:19.221Z,6.8
2017-12-26T02:20:18.962Z,7.8
2017-12-26T02:22:18.736Z,6.4
2017-12-26T02:24:19.467Z,5.8
2017-12-26T02:26:18.965Z,5.7
2017-12-26T02:28:18.698Z,6.1
2017-12-26T02:30:19.429Z,7.2
2017-12-26T02:32:19.179Z,7.6
2017-12-26T02:34:18.968Z,4.7
2017-12-26T02:36:19.143Z,4.5
2017-12-26T02:38:18.862Z,5.8
2017-12-26T02:40:19.071Z,5.1
2017-12-26T02:42:18.829Z,5.6
2017-12-26T02:44:19.554Z,5.8
2017-12-26T02:46:18.971Z,7.2
2017-12-26T02:48:18.733Z,5.6
2017-12-26T02:50:19.471Z,6
2017-12-26T02:52:19.225Z,7.4
2017-12-26T02:54:18.935Z,6.3
2017-12-26T02:56:19.422Z,5.6
2017-12-26T02:58:19.168Z,5.8
2017-12-26T03:00:18.897Z,5.9
2017-12-26T03:02:19.626Z,7.3
2017-12-26T03:04:19.389Z,11.4
2017-12-26T03:06:19.465Z,6.2
2017-12-26T03:08:19.207Z,5.1
2017-12-26T03:10:19.450Z,6.8
2017-12-26T03:12:19.167Z,9.1
2017-12-26T03:14:18.885Z,4
2017-12-26T03:16:19.570Z,5
2017-12-26T03:18:19.349Z,4.1
2017-12-26T03:20:19.127Z,6.7
2017-12-26T03:22:18.861Z,6.1
2017-12-26T03:24:19.564Z,5
2017-12-26T03:26:19.294Z,6.9
2017-12-26T03:28:19.051Z,4.6
2017-12-26T03:30:18.834Z,7.4
2017-12-26T03:32:19.532Z,5.1
2017-12-26T03:34:19.273Z,7.1
2017-12-26T03:36:18.836Z,8.3
2017-12-26T03:38:19.664Z,6.2
2017-12-26T03:40:18.866Z,6.3
2017-12-26T03:42:19.568Z,7
2017-12-26T03:44:19.291Z,5.8
2017-12-26T03:46:19.413Z,8
2017-12-26T03:48:19.150Z,4.9
2017-12-26T03:50:18.920Z,6.1
2017-12-26T03:52:19.683Z,4.4
2017-12-26T03:54:19.435Z,4.9
2017-12-26T03:56:18.923Z,4
2017-12-26T03:58:18.651Z,5.2
2017-12-26T04:00:19.408Z,7.2
2017-12-26T04:02:19.165Z,8.2
2017-12-26T04:04:18.891Z,7.8
2017-12-26T04:06:18.929Z,5.7
2017-12-26T04:08:18.701Z,4.2
2017-12-26T04:10:18.902Z,10.8
2017-12-26T04:12:18.969Z,8.4
2017-12-26T04:14:18.722Z,6.7
2017-12-26T04:16:19.311Z,7.1
2017-12-26T04:18:19.109Z,5.3
2017-12-26T04:20:18.872Z,4.4
2017-12-26T04:22:19.609Z,7.1
2017-12-26T04:24:19.358Z,7.6
2017-12-26T04:26:18.870Z,4.9
2017-12-26T04:28:19.597Z,6.1
2017-12-26T04:30:19.334Z,10.2
2017-12-26T04:32:19.068Z,5.2
2017-12-26T04:34:18.784Z,7.8
2017-12-26T04:36:18.833Z,6
2017-12-26T04:38:19.572Z,6.1
2017-12-26T04:40:18.930Z,5.4
2017-12-26T04:42:19.434Z,5.3
2017-12-26T04:44:19.176Z,5.2
2017-12-26T04:46:19.190Z,3.7
2017-12-26T04:48:18.946Z,7.3
2017-12-26T04:50:18.730Z,15.7
2017-12-26T04:52:19.180Z,5.1
2017-12-26T04:54:18.945Z,4.2
2017-12-26T04:56:19.491Z,5.3
2017-12-26T04:58:19.239Z,6.2
2017-12-26T05:00:18.969Z,5.5
2017-12-26T05:02:18.695Z,4.3
2017-12-26T05:04:19.444Z,5
2017-12-26T05:06:19.132Z,6.2
2017-12-26T05:08:18.834Z,7.6
2017-12-26T05:10:19.087Z,4
2017-12-26T05:12:19.570Z,5.4
2017-12-26T05:14:19.290Z,5.9
2017-12-26T05:16:19.288Z,6.2
2017-12-26T05:18:19.093Z,12.7
2017-12-26T05:20:18.812Z,5.3
2017-12-26T05:22:19.601Z,5.6
2017-12-26T05:24:19.350Z,4
2017-12-26T05:26:18.701Z,8
2017-12-26T05:28:19.465Z,6.5
2017-12-26T05:30:19.198Z,5.2
2017-12-26T05:32:18.935Z,5.5
2017-12-26T05:34:18.678Z,5.4
2017-12-26T05:36:19.244Z,5.8
2017-12-26T05:38:18.959Z,6.7
2017-12-26T05:40:19.230Z,6
2017-12-26T05:42:18.958Z,8.4
2017-12-26T05:44:18.754Z,4.7
2017-12-26T05:46:19.064Z,6
2017-12-26T05:48:18.773Z,5.1
2017-12-26T05:50:19.511Z,5.5
2017-12-26T05:52:19.276Z,4.6
2017-12-26T05:54:19.029Z,8.4
2017-12-26T05:56:18.988Z,6.7
2017-12-26T05:58:18.730Z,7.6
2017-12-26T06:00:19.536Z,6.3
2017-12-26T06:02:19.262Z,11.2
2017-12-26T06:04:19.039Z,16
2017-12-26T06:06:19.598Z,8.1
2017-12-26T06:08:19.312Z,7.7
2017-12-26T06:10:19.512Z,7.7
2017-12-26T06:12:19.262Z,7.3
2017-12-26T06:14:18.999Z,8.5
2017-12-26T06:16:19.540Z,7
2017-12-26T06:18:19.356Z,10.3
2017-12-26T06:20:19.140Z,8.2
2017-12-26T06:22:18.882Z,6.4
2017-12-26T06:24:19.629Z,7.7
2017-12-26T06:26:19.142Z,10.6
2017-12-26T06:28:18.850Z,7.7
2017-12-26T06:30:19.646Z,10.4
2017-12-26T06:32:19.421Z,10
2017-12-26T06:34:19.218Z,8.6
2017-12-26T06:36:18.907Z,7.8
2017-12-26T06:38:19.666Z,5.7
2017-12-26T06:40:18.881Z,8.1
2017-12-26T06:42:19.615Z,5.3
2017-12-26T06:44:19.380Z,9.7
2017-12-26T06:46:18.903Z,7.6
2017-12-26T06:48:19.657Z,8.6
2017-12-26T06:50:19.408Z,9.1
2017-12-26T06:52:19.560Z,12.7
2017-12-26T06:54:19.305Z,10.9
2017-12-26T06:56:19.586Z,7.8
2017-12-26T06:58:19.295Z,7.1
2017-12-26T07:00:19.133Z,7.2
2017-12-26T07:02:18.877Z,5.7
2017-12-26T07:04:19.632Z,5.2
2017-12-26T07:06:19.486Z,11
2017-12-26T07:08:19.241Z,8.5
2017-12-26T07:10:19.439Z,9.6
2017-12-26T07:12:19.162Z,6.7
2017-12-26T07:14:18.914Z,8.4
2017-12-26T07:16:19.212Z,8.3
2017-12-26T07:18:19.015Z,5.4
2017-12-26T07:20:18.741Z,5.6
2017-12-26T07:22:19.489Z,7.1
2017-12-26T07:24:19.235Z,6.2
2017-12-26T07:26:18.757Z,5.4
2017-12-26T07:28:19.469Z,6.4
2017-12-26T07:30:19.176Z,8.3
2017-12-26T07:32:18.916Z,7.7
2017-12-26T07:34:19.649Z,8.4
2017-12-26T07:36:19.369Z,9.4
2017-12-26T07:38:19.158Z,7.8
2017-12-26T07:40:19.401Z,5.7
2017-12-26T07:42:19.146Z,5.7
2017-12-26T07:44:18.904Z,5.3
2017-12-26T07:46:19.421Z,5.8
2017-12-26T07:48:19.150Z,6.5
2017-12-26T07:50:19.003Z,5.9
2017-12-26T07:52:18.730Z,7.4
2017-12-26T07:54:19.446Z,6.6
2017-12-26T07:56:18.894Z,6.8
2017-12-26T07:58:19.613Z,7.3
2017-12-26T08:00:19.350Z,6.8
2017-12-26T08:02:19.113Z,9.9
2017-12-26T08:04:18.822Z,9.9
2017-12-26T08:06:19.558Z,5.7
2017-12-26T08:08:19.278Z,7
2017-12-26T08:10:19.509Z,5.7
2017-12-26T08:12:19.237Z,4.5
2017-12-26T08:14:18.984Z,5.8
2017-12-26T08:16:19.435Z,6.8
2017-12-26T08:18:19.239Z,10.9
2017-12-26T08:20:18.976Z,5.9
2017-12-26T08:22:18.751Z,6.8
2017-12-26T08:24:19.477Z,5.3
2017-12-26T08:26:18.971Z,5.1
2017-12-26T08:28:18.716Z,7.7
2017-12-26T08:30:19.462Z,7.6
2017-12-26T08:32:19.189Z,10.3
2017-12-26T08:34:18.931Z,12.2
2017-12-26T08:36:19.511Z,7.2
2017-12-26T08:38:19.268Z,8.4
2017-12-26T08:40:19.471Z,9.2
2017-12-26T08:42:19.233Z,4.6
2017-12-26T08:44:18.974Z,7
2017-12-26T08:46:18.826Z,7.2
2017-12-26T08:48:19.546Z,9.1
2017-12-26T08:50:19.362Z,6.3
2017-12-26T08:52:19.121Z,5.8
2017-12-26T08:54:18.889Z,5.1
2017-12-26T08:56:19.415Z,5.8
2017-12-26T08:58:19.166Z,4.2
2017-12-26T09:00:18.898Z,5.7
2017-12-26T09:02:19.636Z,4.8
2017-12-26T09:04:19.397Z,6.3
2017-12-26T09:06:19.484Z,5.1
2017-12-26T09:08:19.227Z,6.5
2017-12-26T09:10:19.423Z,4.6
2017-12-26T09:12:19.147Z,6.5
2017-12-26T09:14:18.880Z,6.5
2017-12-26T09:16:18.991Z,7.2
2017-12-26T09:18:18.779Z,6.9
2017-12-26T09:20:19.561Z,8.6
2017-12-26T09:22:19.281Z,4.9
2017-12-26T09:24:19.034Z,8.8
2017-12-26T09:26:19.618Z,7.1
2017-12-26T09:28:19.365Z,6.8
2017-12-26T09:30:19.090Z,8.7
2017-12-26T09:32:18.852Z,7.5
2017-12-26T09:34:19.634Z,4.6
2017-12-26T09:36:19.621Z,8.3
2017-12-26T09:38:19.406Z,9.6
2017-12-26T09:40:19.656Z,5.9
2017-12-26T09:42:19.397Z,14.4
2017-12-26T09:44:19.168Z,5.1
2017-12-26T09:46:19.318Z,6.7
2017-12-26T09:48:19.051Z,5.8
2017-12-26T09:50:18.766Z,6
2017-12-26T09:52:19.492Z,4.5
2017-12-26T09:54:19.268Z,3.4
2017-12-26T09:56:19.400Z,7.4
2017-12-26T09:58:19.161Z,4.5
2017-12-26T10:00:18.903Z,4.3
2017-12-26T10:02:19.634Z,3.7
2017-12-26T10:04:19.361Z,4.5
2017-12-26T10:06:19.533Z,8.1
2017-12-26T10:08:19.287Z,8
2017-12-26T10:10:19.493Z,4.9
2017-12-26T10:12:19.232Z,3.8
2017-12-26T10:14:19.003Z,6
2017-12-26T10:16:19.622Z,5.4
2017-12-26T10:18:19.443Z,3.6
2017-12-26T10:20:19.186Z,5.1
2017-12-26T10:22:18.842Z,6.4
2017-12-26T10:24:19.564Z,3.7
2017-12-26T10:26:19.142Z,2.8
2017-12-26T10:28:18.931Z,3.9
2017-12-26T10:30:19.678Z,5.3
2017-12-26T10:32:19.434Z,3
2017-12-26T10:34:19.195Z,3.9
2017-12-26T10:36:19.268Z,3.4
2017-12-26T10:38:19.035Z,2.7
2017-12-26T10:40:19.274Z,3.3
2017-12-26T10:42:19.337Z,3.5
2017-12-26T10:44:19.076Z,4.1
2017-12-26T10:46:19.151Z,3.7
2017-12-26T10:48:18.882Z,7.9
2017-12-26T10:50:19.612Z,4.1
2017-12-26T10:52:19.390Z,2.3
2017-12-26T10:54:19.120Z,1.5
2017-12-26T10:56:19.183Z,2.7
2017-12-26T10:58:18.940Z,2.2
2017-12-26T11:00:18.715Z,2.5
2017-12-26T11:02:19.441Z,3.6
2017-12-26T11:04:19.186Z,5.6
2017-12-26T11:06:19.487Z,2
2017-12-26T11:08:19.231Z,2.9
2017-12-26T11:10:19.438Z,1.3
2017-12-26T11:12:19.184Z,4.3
2017-12-26T11:14:18.941Z,1.9
2017-12-26T11:16:19.307Z,2.8
2017-12-26T11:18:19.153Z,5.1
2017-12-26T11:20:18.874Z,1.8
2017-12-26T11:22:19.617Z,3.3
2017-12-26T11:24:19.348Z,2
2017-12-26T11:26:18.997Z,1.4
2017-12-26T11:28:18.773Z,3.2
2017-12-26T11:30:19.526Z,1.9
2017-12-26T11:32:19.299Z,2.3
2017-12-26T11:34:19.070Z,4.8
2017-12-26T11:36:18.713Z,1.2
2017-12-26T11:38:19.447Z,1.4
2017-12-26T11:40:19.692Z,3.1
2017-12-26T11:42:19.412Z,1.1
2017-12-26T11:44:19.170Z,1.6
2017-12-26T11:46:18.753Z,1.7
2017-12-26T11:48:19.530Z,1.7
2017-12-26T11:50:19.264Z,1.5
2017-12-26T11:52:19.050Z,2.8
2017-12-26T11:54:18.819Z,3.1
2017-12-26T11:56:18.922Z,1.4
2017-12-26T11:58:19.677Z,1
2017-12-26T12:00:19.453Z,1.4
2017-12-26T12:02:19.207Z,1.4
2017-12-26T12:04:18.956Z,1.1
2017-12-26T12:06:19.465Z,2.7
2017-12-26T12:08:19.236Z,1
2017-12-26T12:10:19.448Z,1.4
2017-12-26T12:12:19.188Z,1.9
2017-12-26T12:14:18.941Z,5.7
2017-12-26T12:16:18.731Z,1.6
2017-12-26T12:18:19.559Z,1.4
2017-12-26T12:20:19.277Z,2.9
2017-12-26T12:22:19.045Z,4
2017-12-26T12:24:18.800Z,3.5
2017-12-26T12:26:19.542Z,2
2017-12-26T12:28:19.314Z,1.5
2017-12-26T12:30:19.064Z,1.9
2017-12-26T12:32:18.834Z,0.9
2017-12-26T12:34:19.622Z,2.4
2017-12-26T12:36:19.113Z,4.2
2017-12-26T12:38:18.885Z,2
2017-12-26T12:40:19.150Z,3.3
2017-12-26T12:42:18.908Z,4.6
2017-12-26T12:44:19.670Z,2.1
2017-12-26T12:46:19.710Z,0.7
2017-12-26T12:48:19.476Z,3
2017-12-26T12:50:19.233Z,1.5
2017-12-26T12:52:19.003Z,1.8
2017-12-26T12:54:18.768Z,0.8
2017-12-26T12:56:18.934Z,12
2017-12-26T12:58:18.698Z,1.8
2017-12-26T13:00:19.534Z,1.3
2017-12-26T13:02:19.304Z,3.2
2017-12-26T13:04:19.043Z,1
2017-12-26T13:06:19.160Z,4.3
2017-12-26T13:08:18.921Z,2.5
2017-12-26T13:10:19.220Z,0.9
2017-12-26T13:12:18.984Z,2
2017-12-26T13:14:18.748Z,2
2017-12-26T13:16:19.387Z,0.7
2017-12-26T13:18:19.243Z,1
2017-12-26T13:20:19.081Z,1.3
2017-12-26T13:22:18.856Z,1.6
2017-12-26T13:24:19.629Z,3.7
2017-12-26T13:26:19.327Z,2
2017-12-26T13:28:19.129Z,2.5
2017-12-26T13:30:18.897Z,1
2017-12-26T13:32:19.647Z,0.9
2017-12-26T13:34:19.438Z,2.5
2017-12-26T13:36:18.705Z,1.8
2017-12-26T13:38:19.477Z,1.1
2017-12-26T13:40:18.732Z,1.2
2017-12-26T13:42:19.481Z,0.9
2017-12-26T13:44:19.227Z,0.7
2017-12-26T13:46:19.382Z,1.3
2017-12-26T13:48:19.132Z,6
2017-12-26T13:50:18.907Z,1
2017-12-26T13:52:19.702Z,1.7
2017-12-26T13:54:19.431Z,1
2017-12-26T13:56:19.080Z,1.8
2017-12-26T13:58:18.825Z,2.1
2017-12-26T14:00:19.567Z,7.6
2017-12-26T14:02:19.349Z,0.9
2017-12-26T14:04:19.114Z,1.3
2017-12-26T14:06:19.176Z,0.9
2017-12-26T14:08:18.975Z,7.9
2017-12-26T14:10:19.196Z,1.9
2017-12-26T14:12:18.954Z,1.2
2017-12-26T14:14:18.714Z,0.7
2017-12-26T14:16:18.719Z,1.2
2017-12-26T14:18:19.534Z,1.3
2017-12-26T14:20:19.304Z,2.4
2017-12-26T14:22:19.055Z,1
2017-12-26T14:24:18.857Z,0.7
2017-12-26T14:26:18.728Z,2.3
2017-12-26T14:28:19.476Z,0.9
2017-12-26T14:30:19.224Z,0.7
2017-12-26T14:32:18.994Z,0.8
2017-12-26T14:34:18.721Z,0.8
2017-12-26T14:36:19.368Z,0.9
2017-12-26T14:38:19.119Z,1.1
2017-12-26T14:40:19.351Z,0.6
2017-12-26T14:42:18.990Z,0.7
2017-12-26T14:44:18.763Z,3.2
2017-12-26T14:46:19.403Z,0.7
2017-12-26T14:48:19.206Z,1
2017-12-26T14:50:18.970Z,2.7
2017-12-26T14:52:18.701Z,0.6
2017-12-26T14:54:19.409Z,0.5
2017-12-26T14:56:18.652Z,1.1
2017-12-26T14:58:19.366Z,0.7
2017-12-26T15:00:19.107Z,1.5
2017-12-26T15:02:18.679Z,1.1
2017-12-26T15:04:19.424Z,0.5
2017-12-26T15:06:19.477Z,1.4
2017-12-26T15:08:19.217Z,1
2017-12-26T15:10:19.434Z,2.6
2017-12-26T15:12:19.041Z,1.9
2017-12-26T15:14:18.754Z,0.5
2017-12-26T15:16:18.772Z,13.7
2017-12-26T15:18:19.608Z,0.7
2017-12-26T15:20:19.338Z,1.2
2017-12-26T15:22:19.094Z,0.8
2017-12-26T15:24:18.889Z,0.9
2017-12-26T15:26:18.969Z,0.6
2017-12-26T15:28:18.690Z,0.4
2017-12-26T15:30:19.494Z,0.5
2017-12-26T15:32:19.358Z,2
2017-12-26T15:34:19.088Z,0.8
2017-12-26T15:36:19.489Z,6.1
2017-12-26T15:38:19.231Z,3.7
2017-12-26T15:40:19.456Z,6.2
2017-12-26T15:42:19.242Z,1.1
2017-12-26T15:44:18.974Z,0.6
2017-12-26T15:46:19.506Z,0.6
2017-12-26T15:48:19.278Z,1.1
2017-12-26T15:50:19.018Z,0.7
2017-12-26T15:52:18.744Z,1.1
2017-12-26T15:54:19.502Z,0.4
2017-12-26T15:56:18.995Z,0.9
2017-12-26T15:58:18.754Z,0.5
2017-12-26T16:00:19.519Z,1.8
2017-12-26T16:02:19.242Z,0.8
2017-12-26T16:04:19.001Z,0.9
2017-12-26T16:06:18.663Z,3.8
2017-12-26T16:08:19.393Z,0.5
2017-12-26T16:10:19.636Z,0.3
2017-12-26T16:12:19.289Z,0.2
2017-12-26T16:14:19.079Z,3.6
2017-12-26T16:16:19.144Z,0.8
2017-12-26T16:18:19.044Z,0.7
2017-12-26T16:20:18.836Z,0.3
2017-12-26T16:22:19.441Z,0.4
2017-12-26T16:24:19.171Z,0.9
2017-12-26T16:26:18.781Z,1.3
2017-12-26T16:28:19.531Z,0.3
2017-12-26T16:30:19.280Z,0.2
2017-12-26T16:32:19.008Z,0.6
2017-12-26T16:34:18.769Z,0.5
2017-12-26T16:36:19.280Z,0.2
2017-12-26T16:38:19.018Z,0.4
2017-12-26T16:40:19.245Z,0.4
2017-12-26T16:42:18.965Z,0.5
2017-12-26T16:44:18.735Z,6.1
2017-12-26T16:46:19.158Z,0.4
2017-12-26T16:48:18.876Z,0.6
2017-12-26T16:50:19.600Z,0.9
2017-12-26T16:52:19.326Z,1.4
2017-12-26T16:54:19.074Z,0.5
2017-12-26T16:56:18.705Z,0.5
2017-12-26T16:58:19.448Z,0.5
2017-12-26T17:00:19.199Z,0.2
2017-12-26T17:02:18.977Z,0.1
2017-12-26T17:04:18.714Z,0.3
2017-12-26T17:06:19.264Z,2.9
2017-12-26T17:08:19.035Z,0.3
2017-12-26T17:10:19.279Z,0.2
2017-12-26T17:12:18.999Z,3.6
2017-12-26T17:14:18.773Z,0.4
2017-12-26T17:16:19.437Z,0.2
2017-12-26T17:18:19.258Z,0.4
2017-12-26T17:20:19.107Z,0.7
2017-12-26T17:22:18.842Z,0.6
2017-12-26T17:24:19.567Z,3.7
2017-12-26T17:26:18.792Z,0.2
2017-12-26T17:28:19.508Z,2
2017-12-26T17:30:19.279Z,0.4
2017-12-26T17:32:18.802Z,0.2
2017-12-26T17:34:19.569Z,0.5
2017-12-26T17:36:19.608Z,0.3
2017-12-26T17:38:19.338Z,0.2
2017-12-26T17:40:19.576Z,0.5
2017-12-26T17:42:19.348Z,0.4
2017-12-26T17:44:19.076Z,0.4
2017-12-26T17:46:18.896Z,0.8
2017-12-26T17:48:19.644Z,0.3
2017-12-26T17:50:19.396Z,0.4
2017-12-26T17:52:19.181Z,0.3
2017-12-26T17:54:18.966Z,8.7
2017-12-26T17:56:18.993Z,0.9
2017-12-26T17:58:18.714Z,0.4
2017-12-26T18:00:19.454Z,0.6
2017-12-26T18:02:19.207Z,0.4
2017-12-26T18:04:18.939Z,3.4
2017-12-26T18:06:19.516Z,0.3
2017-12-26T18:08:19.264Z,0.2
2017-12-26T18:10:19.470Z,0.4
2017-12-26T18:12:19.191Z,2.1
2017-12-26T18:14:18.919Z,0.8
2017-12-26T18:16:18.738Z,0.2
2017-12-26T18:18:19.543Z,0.2
2017-12-26T18:20:19.259Z,0.3
2017-12-26T18:22:19.009Z,0.7
2017-12-26T18:24:18.744Z,2.3
2017-12-26T18:26:19.261Z,1.9
2017-12-26T18:28:19.032Z,0.6
2017-12-26T18:30:18.788Z,3
2017-12-26T18:32:19.509Z,0.2
2017-12-26T18:34:19.253Z,0.6
2017-12-26T18:36:19.654Z,0.2
2017-12-26T18:38:19.398Z,0.5
2017-12-26T18:40:19.602Z,0.6
2017-12-26T18:42:19.321Z,1.1
2017-12-26T18:44:19.042Z,0.3
2017-12-26T18:46:18.712Z,0.3
2017-12-26T18:48:19.441Z,0.7
2017-12-26T18:50:19.199Z,1.8
2017-12-26T18:52:18.902Z,1
2017-12-26T18:54:19.693Z,1
2017-12-26T18:56:18.960Z,3.3
2017-12-26T18:58:18.686Z,0.5
2017-12-26T19:00:19.420Z,0.4
2017-12-26T19:02:19.422Z,0.6
2017-12-26T19:04:19.138Z,0.8
2017-12-26T19:06:18.760Z,0.4
2017-12-26T19:08:19.501Z,1
2017-12-26T19:10:18.767Z,0.5
2017-12-26T19:12:19.519Z,0.4
2017-12-26T19:14:19.256Z,0.4
2017-12-26T19:16:18.935Z,0.8
2017-12-26T19:18:18.768Z,1
2017-12-26T19:20:19.571Z,0.5
2017-12-26T19:22:19.576Z,1.2
2017-12-26T19:24:19.346Z,1.6
2017-12-26T19:26:18.771Z,2.3
2017-12-26T19:28:19.507Z,0.3
2017-12-26T19:30:19.246Z,2.7
2017-12-26T19:32:18.966Z,0.4
2017-12-26T19:34:18.688Z,1.1
2017-12-26T19:36:19.145Z,0.5
2017-12-26T19:38:18.863Z,1.2
2017-12-26T19:40:19.359Z,0.4
2017-12-26T19:42:19.131Z,0.2
2017-12-26T19:44:18.881Z,1.7
2017-12-26T19:46:19.385Z,2.6
2017-12-26T19:48:19.127Z,0.4
2017-12-26T19:50:18.884Z,0.4
2017-12-26T19:52:19.662Z,0.4
2017-12-26T19:54:19.377Z,0.4
2017-12-26T19:56:18.904Z,0.8
2017-12-26T19:58:19.667Z,0.4
2017-12-26T20:00:19.424Z,1.7
2017-12-26T20:02:19.150Z,1.4
2017-12-26T20:04:18.929Z,0.5
2017-12-26T20:06:19.407Z,1.5
2017-12-26T20:08:19.147Z,1.2
2017-12-26T20:10:19.381Z,1.2
2017-12-26T20:12:19.129Z,0.8
2017-12-26T20:14:18.912Z,0.6
2017-12-26T20:16:19.107Z,0.9
2017-12-26T20:18:18.938Z,0.4
2017-12-26T20:20:18.669Z,0.4
2017-12-26T20:22:18.707Z,1.1
2017-12-26T20:24:19.456Z,1.5
2017-12-26T20:26:19.589Z,0.4
2017-12-26T20:28:19.329Z,2.4
2017-12-26T20:30:19.143Z,4
2017-12-26T20:32:18.769Z,2.9
2017-12-26T20:34:19.525Z,1.2
2017-12-26T20:36:19.561Z,1.7
2017-12-26T20:38:19.310Z,0.3
2017-12-26T20:40:19.505Z,0.3
2017-12-26T20:42:19.225Z,1.1
2017-12-26T20:44:18.963Z,0.4
2017-12-26T20:46:19.535Z,0.5
2017-12-26T20:48:19.276Z,0.5
2017-12-26T20:50:19.022Z,3.1
2017-12-26T20:52:18.739Z,1.7
2017-12-26T20:54:19.455Z,0.5
2017-12-26T20:56:18.981Z,0.3
2017-12-26T20:58:18.732Z,1
2017-12-26T21:00:19.485Z,2.3
2017-12-26T21:02:19.212Z,1.3
2017-12-26T21:04:18.938Z,0.7
2017-12-26T21:06:19.603Z,0.3
2017-12-26T21:08:19.338Z,0.6
2017-12-26T21:10:19.563Z,0.5
2017-12-26T21:12:19.301Z,2.8
2017-12-26T21:14:19.030Z,0.4
2017-12-26T21:16:19.000Z,0.3
2017-12-26T21:18:18.841Z,2.6
2017-12-26T21:20:19.614Z,0.6
2017-12-26T21:22:19.280Z,1.6
2017-12-26T21:24:19.008Z,0.8
2017-12-26T21:26:19.520Z,0.6
2017-12-26T21:28:19.250Z,0.6
2017-12-26T21:30:18.985Z,0.4
2017-12-26T21:32:18.693Z,0.2
2017-12-26T21:34:19.459Z,0.4
2017-12-26T21:36:18.974Z,0.7
2017-12-26T21:38:18.707Z,2.9
2017-12-26T21:40:18.949Z,0.4
2017-12-26T21:42:18.718Z,0.8
2017-12-26T21:44:19.438Z,0.5
2017-12-26T21:46:19.600Z,0.2
2017-12-26T21:48:19.357Z,0.4
2017-12-26T21:50:19.072Z,0.8
2017-12-26T21:52:18.800Z,0.4
2017-12-26T21:54:19.541Z,0.9
2017-12-26T21:56:19.539Z,0.8
2017-12-26T21:58:19.257Z,1.6
2017-12-26T22:00:18.985Z,9.5
2017-12-26T22:02:18.737Z,1
2017-12-26T22:04:19.483Z,0.7
2017-12-26T22:06:19.354Z,0.2
2017-12-26T22:08:19.074Z,1.1
2017-12-26T22:10:19.291Z,2.1
2017-12-26T22:12:19.484Z,0.4
2017-12-26T22:14:19.224Z,1.4
2017-12-26T22:16:19.474Z,0.6
2017-12-26T22:18:19.287Z,2.2
2017-12-26T22:20:19.030Z,0.3
2017-12-26T22:22:18.804Z,0.4
2017-12-26T22:24:19.548Z,0.5
2017-12-26T22:26:19.082Z,1.9
2017-12-26T22:28:18.848Z,0.9
2017-12-26T22:30:19.630Z,1.3
2017-12-26T22:32:19.370Z,0.8
2017-12-26T22:34:19.119Z,0.5
2017-12-26T22:36:19.627Z,0.6
2017-12-26T22:38:19.375Z,0.6
2017-12-26T22:40:19.584Z,2.8
2017-12-26T22:42:19.319Z,2.1
2017-12-26T22:44:19.044Z,3.4
2017-12-26T22:46:19.441Z,1.2
2017-12-26T22:48:19.174Z,2
2017-12-26T22:50:18.938Z,0.7
2017-12-26T22:52:18.657Z,0.3
2017-12-26T22:54:19.447Z,0.5
2017-12-26T22:56:18.794Z,0.7
2017-12-26T22:58:19.536Z,0.4
2017-12-26T23:00:19.279Z,0.6
2017-12-26T23:02:19.052Z,0.4
2017-12-26T23:04:18.799Z,0.3
2017-12-26T23:06:19.467Z,0.3
2017-12-26T23:08:19.247Z,0.5
2017-12-26T23:10:19.449Z,0.7
2017-12-26T23:12:19.192Z,1.8
2017-12-26T23:14:18.961Z,2.7
2017-12-26T23:16:19.457Z,0.4
2017-12-26T23:18:19.260Z,0.3
2017-12-26T23:20:19.107Z,0.4
2017-12-26T23:22:18.822Z,0.3
2017-12-26T23:24:19.548Z,1.3
2017-12-26T23:26:19.095Z,0.4
2017-12-26T23:28:18.815Z,1.1
2017-12-26T23:30:19.596Z,1.1
2017-12-26T23:32:19.326Z,1.2
2017-12-26T23:34:19.041Z,3.7
2017-12-26T23:36:19.530Z,1.3
2017-12-26T23:38:19.237Z,0.8
2017-12-26T23:40:19.475Z,0.5
2017-12-26T23:42:19.206Z,2.3
2017-12-26T23:44:18.913Z,0.5
2017-12-26T23:46:19.464Z,0.5
2017-12-26T23:48:19.196Z,1.3
2017-12-26T23:50:19.060Z,0.6
2017-12-26T23:52:18.778Z,2.1
2017-12-26T23:54:19.487Z,0.5
2017-12-26T23:56:18.683Z,0.6
2017-12-26T23:58:19.414Z,1.8
